createdAt,value
2022-09-25T00:00:59.572Z,13.00
2022-09-25T00:03:28.590Z,13.00
2022-09-25T00:06:05.217Z,13.00
2022-09-25T00:08:32.342Z,13.00
2022-09-25T00:10:59.207Z,13.00
2022-09-25T00:13:26.343Z,12.90
2022-09-25T00:15:55.956Z,13.00
2022-09-25T00:18:43.372Z,13.00
2022-09-25T00:21:15.698Z,13.00
2022-09-25T00:23:44.690Z,13.00
2022-09-25T00:26:12.685Z,13.00
2022-09-25T00:28:40.999Z,13.00
2022-09-25T00:31:09.261Z,12.90
2022-09-25T00:33:36.704Z,13.00
2022-09-25T00:36:06.149Z,12.90
2022-09-25T00:38:34.277Z,13.00
2022-09-25T00:41:01.821Z,12.90
2022-09-25T00:43:38.037Z,12.90
2022-09-25T00:46:16.581Z,12.90
2022-09-25T00:48:53.747Z,12.90
2022-09-25T00:51:29.594Z,12.90
2022-09-25T00:54:01.216Z,12.90
2022-09-25T00:56:32.641Z,12.90
2022-09-25T00:58:59.420Z,12.90
2022-09-25T01:01:26.022Z,12.90
2022-09-25T01:03:52.725Z,12.90
2022-09-25T01:06:19.824Z,12.90
2022-09-25T01:08:47.071Z,12.90
2022-09-25T01:11:13.856Z,12.90
2022-09-25T01:13:41.230Z,12.90
2022-09-25T01:16:59.365Z,12.90
2022-09-25T01:19:44.769Z,12.90
2022-09-25T01:22:34.804Z,12.90
2022-09-25T01:25:32.546Z,12.90
2022-09-25T01:28:29.418Z,12.90
2022-09-25T01:31:02.864Z,12.90
2022-09-25T01:33:36.944Z,12.90
2022-09-25T01:36:14.991Z,12.90
2022-09-25T01:38:43.860Z,12.90
2022-09-25T01:41:28.384Z,12.90
2022-09-25T01:44:03.525Z,12.90
2022-09-25T01:46:35.169Z,12.90
2022-09-25T01:49:30.351Z,12.90
2022-09-25T01:51:58.529Z,12.90
2022-09-25T01:54:34.380Z,12.90
2022-09-25T01:57:24.055Z,12.90
2022-09-25T02:00:06.608Z,12.90
2022-09-25T02:02:39.982Z,12.90
2022-09-25T02:05:18.302Z,12.90
2022-09-25T02:07:56.687Z,12.90
2022-09-25T02:10:33.997Z,12.90
2022-09-25T02:13:13.214Z,12.80
2022-09-25T02:15:47.909Z,12.80
2022-09-25T02:18:36.328Z,12.80
2022-09-25T02:21:10.247Z,12.90
2022-09-25T02:24:01.107Z,12.80
2022-09-25T02:26:32.865Z,12.80
2022-09-25T02:29:00.324Z,12.80
2022-09-25T02:32:04.820Z,12.80
2022-09-25T02:34:32.777Z,12.80
2022-09-25T02:36:59.938Z,12.80
2022-09-25T02:39:29.420Z,12.80
2022-09-25T02:42:19.175Z,12.80
2022-09-25T02:45:08.107Z,12.80
2022-09-25T02:47:54.977Z,12.80
2022-09-25T02:50:27.657Z,12.80
2022-09-25T02:53:23.626Z,12.80
2022-09-25T02:56:08.505Z,12.80
2022-09-25T02:58:39.844Z,12.80
2022-09-25T03:01:10.389Z,12.80
2022-09-25T03:03:39.383Z,12.80
2022-09-25T03:06:08.162Z,12.80
2022-09-25T03:08:38.124Z,12.80
2022-09-25T03:11:11.019Z,12.80
2022-09-25T03:13:37.817Z,12.80
2022-09-25T03:16:20.145Z,12.80
2022-09-25T03:18:47.952Z,12.80
2022-09-25T03:21:14.569Z,12.80
2022-09-25T03:23:41.223Z,12.80
2022-09-25T03:26:08.000Z,12.80
2022-09-25T03:28:35.008Z,12.80
2022-09-25T03:31:06.606Z,12.80
2022-09-25T03:33:38.570Z,12.80
2022-09-25T03:36:10.952Z,12.80
2022-09-25T03:38:38.683Z,12.80
2022-09-25T03:41:08.916Z,12.80
2022-09-25T03:43:37.215Z,12.80
2022-09-25T03:46:05.359Z,12.80
2022-09-25T03:48:32.530Z,12.80
2022-09-25T03:50:59.590Z,12.80
2022-09-25T03:53:26.545Z,12.80
2022-09-25T03:55:53.481Z,12.70
2022-09-25T03:58:20.232Z,12.70
2022-09-25T04:00:47.489Z,12.80
2022-09-25T04:03:15.290Z,12.80
2022-09-25T04:05:43.429Z,12.80
2022-09-25T04:08:10.694Z,12.70
2022-09-25T04:10:38.774Z,12.70
2022-09-25T04:13:06.659Z,12.70
2022-09-25T04:15:33.855Z,12.70
2022-09-25T04:18:05.778Z,12.70
2022-09-25T04:20:32.831Z,12.70
2022-09-25T04:22:59.373Z,12.80
2022-09-25T04:25:25.991Z,12.70
2022-09-25T04:27:55.418Z,12.70
2022-09-25T04:30:26.516Z,12.70
2022-09-25T04:33:12.311Z,12.70
2022-09-25T04:35:38.914Z,12.70
2022-09-25T04:38:05.512Z,12.70
2022-09-25T04:40:32.765Z,12.70
2022-09-25T04:43:03.268Z,12.70
2022-09-25T04:45:30.933Z,12.70
2022-09-25T04:47:59.944Z,12.70
2022-09-25T04:50:28.138Z,12.70
2022-09-25T04:52:56.541Z,12.70
2022-09-25T04:55:24.272Z,12.70
2022-09-25T04:57:58.827Z,12.70
2022-09-25T05:00:31.790Z,12.70
2022-09-25T05:02:58.923Z,12.70
2022-09-25T05:05:30.398Z,12.70
2022-09-25T05:08:01.364Z,12.70
2022-09-25T05:10:30.578Z,12.70
2022-09-25T05:12:58.981Z,12.70
2022-09-25T05:15:26.601Z,12.70
2022-09-25T05:18:00.627Z,12.70
2022-09-25T05:20:27.174Z,12.70
2022-09-25T05:22:59.647Z,12.70
2022-09-25T05:25:27.057Z,12.70
2022-09-25T05:27:58.330Z,12.70
2022-09-25T05:30:26.071Z,12.70
2022-09-25T05:32:53.673Z,12.70
2022-09-25T05:35:23.372Z,12.70
2022-09-25T05:37:50.660Z,12.70
2022-09-25T05:40:20.126Z,12.70
2022-09-25T05:42:47.859Z,12.70
2022-09-25T05:45:15.398Z,12.60
2022-09-25T05:47:43.442Z,12.60
2022-09-25T05:50:13.259Z,12.60
2022-09-25T05:52:40.171Z,12.70
2022-09-25T05:55:08.404Z,12.70
2022-09-25T05:57:36.153Z,12.70
2022-09-25T06:00:05.990Z,12.70
2022-09-25T06:02:32.541Z,12.60
2022-09-25T06:04:59.305Z,12.70
2022-09-25T06:07:26.032Z,12.70
2022-09-25T06:09:52.575Z,12.70
2022-09-25T06:12:19.599Z,12.70
2022-09-25T06:14:46.549Z,12.70
2022-09-25T06:17:13.738Z,12.60
2022-09-25T06:19:40.352Z,12.60
2022-09-25T06:22:06.853Z,12.70
2022-09-25T06:24:33.378Z,12.70
2022-09-25T06:26:59.874Z,12.70
2022-09-25T06:29:26.406Z,12.70
2022-09-25T06:31:53.285Z,12.70
2022-09-25T06:34:20.072Z,12.70
2022-09-25T06:36:46.640Z,12.70
2022-09-25T06:39:13.152Z,12.70
2022-09-25T06:41:41.051Z,12.70
2022-09-25T06:44:09.089Z,12.70
2022-09-25T06:46:36.631Z,12.70
2022-09-25T06:49:03.392Z,12.70
2022-09-25T06:51:34.735Z,12.70
2022-09-25T06:54:01.400Z,12.70
2022-09-25T06:56:27.924Z,12.70
2022-09-25T06:58:54.858Z,12.70
2022-09-25T07:01:21.568Z,12.70
2022-09-25T07:03:49.655Z,12.70
2022-09-25T07:06:19.875Z,12.70
2022-09-25T07:08:48.059Z,12.70
2022-09-25T07:11:19.917Z,12.70
2022-09-25T07:13:47.241Z,12.70
2022-09-25T07:16:17.017Z,12.70
2022-09-25T07:18:44.470Z,12.70
2022-09-25T07:21:14.051Z,12.70
2022-09-25T07:23:41.984Z,12.70
2022-09-25T07:26:14.675Z,12.70
2022-09-25T07:28:42.767Z,12.70
2022-09-25T07:31:18.487Z,12.70
2022-09-25T07:33:46.069Z,12.70
2022-09-25T07:36:13.777Z,12.80
2022-09-25T07:38:41.080Z,12.70
2022-09-25T07:41:13.103Z,12.70
2022-09-25T07:43:40.449Z,12.80
2022-09-25T07:46:07.311Z,12.80
2022-09-25T07:48:33.892Z,12.80
2022-09-25T07:51:05.562Z,12.70
2022-09-25T07:53:32.226Z,12.70
2022-09-25T07:56:05.282Z,12.80
2022-09-25T07:58:33.008Z,12.70
2022-09-25T08:01:01.636Z,12.70
2022-09-25T08:03:29.162Z,12.80
2022-09-25T08:06:04.408Z,12.70
2022-09-25T08:08:33.179Z,12.80
2022-09-25T08:11:06.962Z,12.70
2022-09-25T08:13:34.640Z,12.70
2022-09-25T08:16:13.325Z,12.70
2022-09-25T08:18:41.717Z,12.70
2022-09-25T08:21:09.464Z,12.70
2022-09-25T08:23:36.735Z,12.70
2022-09-25T08:26:03.327Z,12.70
2022-09-25T08:28:29.892Z,12.70
2022-09-25T08:30:59.489Z,12.70
2022-09-25T08:33:27.322Z,12.70
2022-09-25T08:35:59.152Z,12.70
2022-09-25T08:38:26.623Z,12.70
2022-09-25T08:40:58.297Z,12.70
2022-09-25T08:43:26.443Z,12.70
2022-09-25T08:46:13.454Z,12.70
2022-09-25T08:49:05.997Z,12.70
2022-09-25T08:51:40.333Z,12.70
2022-09-25T08:54:07.468Z,12.70
2022-09-25T08:56:35.669Z,12.70
2022-09-25T08:59:32.430Z,12.70
2022-09-25T09:02:10.394Z,12.70
2022-09-25T09:04:51.655Z,12.70
2022-09-25T09:07:37.661Z,12.60
2022-09-25T09:10:48.176Z,12.60
2022-09-25T09:13:39.888Z,12.60
2022-09-25T09:16:19.261Z,12.70
2022-09-25T09:18:45.943Z,12.70
2022-09-25T09:21:27.932Z,12.70
2022-09-25T09:24:24.859Z,12.70
2022-09-25T09:26:59.968Z,12.70
2022-09-25T09:29:38.412Z,12.70
2022-09-25T09:32:18.185Z,12.70
2022-09-25T09:35:04.794Z,12.70
2022-09-25T09:37:56.617Z,12.70
2022-09-25T09:40:39.303Z,12.70
2022-09-25T09:43:57.875Z,12.70
2022-09-25T09:46:57.038Z,12.70
2022-09-25T09:49:36.013Z,12.70
2022-09-25T09:52:17.622Z,12.70
2022-09-25T09:54:51.033Z,12.80
2022-09-25T09:57:43.520Z,12.70
2022-09-25T10:00:18.246Z,12.70
2022-09-25T10:02:56.427Z,12.70
2022-09-25T10:05:27.775Z,12.70
2022-09-25T10:07:54.659Z,12.80
2022-09-25T10:10:27.986Z,12.80
2022-09-25T10:12:57.000Z,12.80
2022-09-25T10:15:46.216Z,12.80
2022-09-25T10:18:13.690Z,12.80
2022-09-25T10:20:44.499Z,12.80
2022-09-25T10:23:33.744Z,12.80
2022-09-25T10:26:00.763Z,12.90
2022-09-25T10:28:34.142Z,12.90
2022-09-25T10:31:02.561Z,12.90
2022-09-25T10:33:32.957Z,12.90
2022-09-25T10:35:59.985Z,12.90
2022-09-25T10:38:29.635Z,12.90
2022-09-25T10:41:14.569Z,12.90
2022-09-25T10:43:58.332Z,12.90
2022-09-25T10:46:50.685Z,12.90
2022-09-25T10:49:44.959Z,13.00
2022-09-25T10:52:14.464Z,13.00
2022-09-25T10:54:45.287Z,13.00
2022-09-25T10:57:19.880Z,13.00
2022-09-25T10:59:51.717Z,13.00
2022-09-25T11:02:34.035Z,13.00
2022-09-25T11:05:01.490Z,13.00
2022-09-25T11:07:28.968Z,13.00
2022-09-25T11:09:59.993Z,13.00
2022-09-25T11:12:29.804Z,13.00
2022-09-25T11:15:02.364Z,13.00
2022-09-25T11:17:41.209Z,13.00
2022-09-25T11:20:16.959Z,13.00
2022-09-25T11:22:55.663Z,13.00
2022-09-25T11:25:35.280Z,13.00
2022-09-25T11:28:14.796Z,13.00
2022-09-25T11:30:49.434Z,13.00
2022-09-25T11:33:32.458Z,13.00
2022-09-25T11:36:22.089Z,13.00
2022-09-25T11:39:12.952Z,13.00
2022-09-25T11:41:56.065Z,13.00
2022-09-25T11:44:36.941Z,12.90
2022-09-25T11:47:24.436Z,13.00
2022-09-25T11:49:53.581Z,13.00
2022-09-25T11:52:59.272Z,13.00
2022-09-25T11:55:50.055Z,13.00
2022-09-25T11:58:35.351Z,13.00
2022-09-25T12:01:29.086Z,13.00
2022-09-25T12:04:20.662Z,13.00
2022-09-25T12:07:12.787Z,13.00
2022-09-25T12:10:04.031Z,13.00
2022-09-25T12:12:41.498Z,13.00
2022-09-25T12:15:10.892Z,13.00
2022-09-25T12:18:01.963Z,13.10
2022-09-25T12:20:52.673Z,13.10
2022-09-25T12:23:32.350Z,13.10
2022-09-25T12:26:23.540Z,13.10
2022-09-25T12:29:20.959Z,13.10
2022-09-25T12:32:14.821Z,13.10
2022-09-25T12:34:59.184Z,13.10
2022-09-25T12:38:05.624Z,13.10
2022-09-25T12:40:44.741Z,13.10
2022-09-25T12:43:14.748Z,13.10
2022-09-25T12:46:07.005Z,13.10
2022-09-25T12:48:50.424Z,13.10
2022-09-25T12:51:25.665Z,13.10
2022-09-25T12:54:02.893Z,13.20
2022-09-25T12:56:42.477Z,13.20
2022-09-25T12:59:19.985Z,13.10
2022-09-25T13:02:16.891Z,13.20
2022-09-25T13:05:21.759Z,13.20
2022-09-25T13:08:07.345Z,13.20
2022-09-25T13:10:42.413Z,13.20
2022-09-25T13:13:25.941Z,13.20
2022-09-25T13:15:56.127Z,13.20
2022-09-25T13:18:25.058Z,13.20
2022-09-25T13:20:56.883Z,13.20
2022-09-25T13:23:35.600Z,13.20
2022-09-25T13:26:12.802Z,13.20
2022-09-25T13:28:48.177Z,13.20
2022-09-25T13:31:23.699Z,13.20
2022-09-25T13:33:52.493Z,13.30
2022-09-25T13:36:23.283Z,13.30
2022-09-25T13:39:16.340Z,13.30
2022-09-25T13:42:02.524Z,13.30
2022-09-25T13:44:43.836Z,13.30
2022-09-25T13:47:25.305Z,13.30
2022-09-25T13:49:53.887Z,13.30
2022-09-25T13:53:16.452Z,13.30
2022-09-25T13:56:03.238Z,13.30
2022-09-25T13:58:32.265Z,13.30
2022-09-25T14:01:01.081Z,13.30
2022-09-25T14:03:41.773Z,13.30
2022-09-25T14:06:24.079Z,13.30
2022-09-25T14:08:58.120Z,13.40
2022-09-25T14:11:31.499Z,13.40
2022-09-25T14:14:01.723Z,13.40
2022-09-25T14:16:33.291Z,13.50
2022-09-25T14:19:01.968Z,13.50
2022-09-25T14:21:30.608Z,13.50
2022-09-25T14:24:11.785Z,13.50
2022-09-25T14:26:44.987Z,13.60
2022-09-25T14:29:17.517Z,13.60
2022-09-25T14:32:09.180Z,13.60
2022-09-25T14:35:19.244Z,13.60
2022-09-25T14:38:16.345Z,13.60
2022-09-25T14:41:26.215Z,13.70
2022-09-25T14:44:37.905Z,13.70
2022-09-25T14:47:05.400Z,13.80
2022-09-25T14:49:40.356Z,13.80
2022-09-25T14:52:14.777Z,13.80
2022-09-25T14:54:46.323Z,13.80
2022-09-25T14:57:19.875Z,13.80
2022-09-25T14:59:52.348Z,13.90
2022-09-25T15:02:31.662Z,13.90
2022-09-25T15:04:59.093Z,13.90
2022-09-25T15:07:27.747Z,13.90
2022-09-25T15:09:55.949Z,13.90
2022-09-25T15:12:35.851Z,13.90
2022-09-25T15:15:02.332Z,13.90
2022-09-25T15:17:31.130Z,13.90
2022-09-25T15:20:00.781Z,13.90
2022-09-25T15:22:36.877Z,13.90
2022-09-25T15:25:05.862Z,13.90
2022-09-25T15:27:32.848Z,13.80
2022-09-25T15:30:03.106Z,13.80
2022-09-25T15:32:39.474Z,13.80
2022-09-25T15:35:23.553Z,13.80
2022-09-25T15:38:00.512Z,13.70
2022-09-25T15:40:30.701Z,13.70
2022-09-25T15:42:59.392Z,13.70
2022-09-25T15:45:34.605Z,13.70
2022-09-25T15:48:09.130Z,13.70
2022-09-25T15:50:36.247Z,13.60
2022-09-25T15:53:03.133Z,13.60
2022-09-25T15:55:32.878Z,13.60
2022-09-25T15:58:11.148Z,13.60
2022-09-25T16:00:56.683Z,13.50
2022-09-25T16:03:44.834Z,13.50
2022-09-25T16:06:16.633Z,13.50
2022-09-25T16:08:43.664Z,13.40
2022-09-25T16:11:24.132Z,13.40
2022-09-25T16:13:53.933Z,13.30
2022-09-25T16:16:23.728Z,13.30
2022-09-25T16:18:51.254Z,13.30
2022-09-25T16:21:33.794Z,13.30
2022-09-25T16:24:07.239Z,13.20
2022-09-25T16:26:38.563Z,13.20
2022-09-25T16:29:16.774Z,13.20
2022-09-25T16:31:44.871Z,13.20
2022-09-25T16:34:38.873Z,13.20
2022-09-25T16:37:18.526Z,13.10
2022-09-25T16:39:45.070Z,13.10
2022-09-25T16:42:42.203Z,13.10
2022-09-25T16:45:42.963Z,13.10
2022-09-25T16:48:29.949Z,13.10
2022-09-25T16:50:59.858Z,13.00
2022-09-25T16:53:27.480Z,13.00
2022-09-25T16:55:54.361Z,12.90
2022-09-25T16:58:22.829Z,12.90
2022-09-25T17:00:50.427Z,12.90
2022-09-25T17:03:17.087Z,12.80
2022-09-25T17:05:43.798Z,12.80
2022-09-25T17:08:16.507Z,12.80
2022-09-25T17:10:44.212Z,12.70
2022-09-25T17:13:16.975Z,12.70
2022-09-25T17:15:44.125Z,12.70
2022-09-25T17:18:21.115Z,12.60
2022-09-25T17:20:54.824Z,12.60
2022-09-25T17:23:23.500Z,12.50
2022-09-25T17:26:00.835Z,12.50
2022-09-25T17:28:27.896Z,12.50
2022-09-25T17:30:54.476Z,12.40
2022-09-25T17:33:22.524Z,12.40
2022-09-25T17:36:04.026Z,12.40
2022-09-25T18:23:22.494Z,11.80
2022-09-25T18:25:49.296Z,11.70
2022-09-25T18:30:44.317Z,11.60
2022-09-25T18:40:33.842Z,11.50
2022-09-25T18:43:01.500Z,11.40
2022-09-25T18:45:28.100Z,11.40
2022-09-25T18:47:54.609Z,11.40
2022-09-25T18:50:21.290Z,11.30
2022-09-25T18:57:44.068Z,11.20
2022-09-25T19:00:11.782Z,11.20
2022-09-25T19:02:42.519Z,11.20
2022-09-25T19:17:31.941Z,11.00
2022-09-25T19:19:58.701Z,11.00
2022-09-25T19:22:25.262Z,11.00
2022-09-25T19:24:52.703Z,10.90
2022-09-25T19:27:19.664Z,10.90
2022-09-25T19:29:47.097Z,10.90
2022-09-25T19:32:15.515Z,10.80
2022-09-25T19:34:54.382Z,10.80
2022-09-25T19:37:33.109Z,10.80
2022-09-25T19:40:24.008Z,10.70
2022-09-25T19:42:50.703Z,10.70
2022-09-25T21:13:58.055Z,9.80
2022-09-25T21:16:26.395Z,9.70
2022-09-25T21:19:01.321Z,9.70
2022-09-25T21:21:28.818Z,9.60
2022-09-25T21:23:56.799Z,9.60
2022-09-25T21:26:26.119Z,9.60
2022-09-25T21:28:54.777Z,9.60
2022-09-25T21:31:23.884Z,9.60
2022-09-25T21:33:52.629Z,9.60
2022-09-25T21:36:20.318Z,9.50
2022-09-25T21:38:47.470Z,9.50
